Time;durP1;ratioP1;P1;durP2;ratioP2;P2;SDS_P1;SDS_P2;PMS_P1;PMS_P2;Temp;Humidity;BMP_temperature;BMP_pressure;BME280_temperature;BME280_humidity;BME280_pressure;Samples;Min_cycle;Max_cycle;Signal;HPM_P1;HPM_P2
2023/04/11 00:02:11;;;;;;;20.02;5.57;;;;;;;12.01;100.00;100817.38;5238614;28;20555;-68
2023/04/11 00:04:43;;;;;;;21.23;4.88;;;;;;;11.89;100.00;100817.56;5242617;28;20546;-67
2023/04/11 00:07:14;;;;;;;16.42;4.90;;;;;;;11.92;100.00;100813.81;5247444;28;20028;-68
2023/04/11 00:09:45;;;;;;;16.80;5.43;;;;;;;11.83;100.00;100802.34;5241137;28;20466;-68
2023/04/11 00:12:17;;;;;;;18.25;4.90;;;;;;;11.80;100.00;100812.28;5247048;28;20490;-67
2023/04/11 00:14:48;;;;;;;22.38;5.85;;;;;;;11.84;100.00;100813.69;5244011;28;20391;-68
2023/04/11 00:17:20;;;;;;;19.05;5.88;;;;;;;11.71;100.00;100821.81;5242601;28;20021;-68
2023/04/11 00:19:52;;;;;;;22.23;5.35;;;;;;;11.61;100.00;100824.41;5243845;28;20059;-68
2023/04/11 00:22:23;;;;;;;18.45;4.93;;;;;;;11.43;100.00;100816.38;5244470;28;20021;-68
2023/04/11 00:24:55;;;;;;;23.48;5.95;;;;;;;11.35;100.00;100831.97;5246107;28;20028;-68
2023/04/11 00:27:26;;;;;;;26.00;6.13;;;;;;;11.39;100.00;100822.03;5242937;28;20112;-67
2023/04/11 00:29:58;;;;;;;21.33;4.88;;;;;;;11.24;100.00;100824.22;5248729;28;20176;-67
2023/04/11 00:32:29;;;;;;;19.27;4.68;;;;;;;11.25;100.00;100825.91;5242047;28;20051;-68
2023/04/11 00:35:00;;;;;;;20.77;6.07;;;;;;;11.23;100.00;100819.94;5244798;28;20037;-67
2023/04/11 00:37:34;;;;;;;24.38;6.32;;;;;;;11.18;100.00;100822.97;5244900;28;20033;-68
2023/04/11 00:40:06;;;;;;;24.08;5.90;;;;;;;11.18;100.00;100835.28;5240605;28;20129;-68
2023/04/11 00:42:38;;;;;;;23.08;5.28;;;;;;;11.18;100.00;100835.28;5242316;28;20116;-67
2023/04/11 00:45:10;;;;;;;20.45;5.65;;;;;;;11.20;100.00;100834.16;5240025;28;20407;-67
2023/04/11 00:47:42;;;;;;;24.30;6.50;;;;;;;11.10;100.00;100837.72;5242972;28;20037;-68
2023/04/11 00:50:14;;;;;;;24.92;6.53;;;;;;;11.15;100.00;100830.28;5242824;28;20029;-68
2023/04/11 00:52:48;;;;;;;26.38;6.38;;;;;;;11.19;100.00;100829.06;5243487;28;20037;-67
2023/04/11 00:55:20;;;;;;;24.90;5.85;;;;;;;11.17;100.00;100823.97;5242026;28;20021;-68
2023/04/11 00:57:53;;;;;;;22.30;6.13;;;;;;;11.26;100.00;100832.81;5241062;28;20111;-67
2023/04/11 01:00:25;;;;;;;24.88;6.13;;;;;;;11.22;100.00;100826.16;5239833;28;20052;-67
2023/04/11 01:02:56;;;;;;;22.43;5.97;;;;;;;11.20;100.00;100820.22;5241769;28;20059;-67
2023/04/11 01:05:29;;;;;;;25.38;5.88;;;;;;;11.24;100.00;100821.59;5243566;28;20124;-68
2023/04/11 01:08:02;;;;;;;24.42;6.28;;;;;;;11.15;100.00;100827.66;5240365;28;20338;-68
2023/04/11 01:10:33;;;;;;;23.80;6.80;;;;;;;11.19;100.00;100826.44;5243850;28;20025;-67
2023/04/11 01:13:05;;;;;;;25.88;6.28;;;;;;;11.15;100.00;100828.50;5246215;28;20024;-68
2023/04/11 01:15:37;;;;;;;28.00;5.95;;;;;;;11.01;100.00;100822.78;5243425;28;20370;-67
2023/04/11 01:18:08;;;;;;;23.73;5.80;;;;;;;11.04;100.00;100823.34;5244486;28;20044;-68
2023/04/11 01:20:39;;;;;;;21.25;5.38;;;;;;;10.96;100.00;100821.41;5241645;28;20123;-68
2023/04/11 01:23:12;;;;;;;15.55;5.68;;;;;;;10.99;100.00;100819.50;5240025;28;20032;-67
2023/04/11 01:25:43;;;;;;;23.33;5.90;;;;;;;10.93;100.00;100831.31;5243314;28;20017;-68
2023/04/11 01:28:17;;;;;;;25.80;5.70;;;;;;;10.94;100.00;100817.25;5240620;28;20517;-67
2023/04/11 01:30:48;;;;;;;;;;;;;;;11.49;100.00;100819.44;5244931;28;20028;-67
2023/04/11 01:33:20;;;;;;;28.75;5.10;;;;;;;10.88;100.00;100821.25;5242573;28;20329;-68
2023/04/11 01:35:51;;;;;;;21.52;5.88;;;;;;;10.86;100.00;100831.00;5241206;28;20031;-68
2023/04/11 01:38:23;;;;;;;19.83;4.72;;;;;;;10.90;100.00;100835.03;5241365;28;20031;-68
2023/04/11 01:40:55;;;;;;;25.38;6.13;;;;;;;10.95;100.00;100832.84;5240507;28;20025;-67
2023/04/11 01:43:26;;;;;;;22.40;5.63;;;;;;;10.80;100.00;100842.03;5238435;28;20036;-67
2023/04/11 01:45:58;;;;;;;20.38;5.22;;;;;;;10.73;100.00;100834.84;5259976;28;20500;-68
2023/04/11 01:48:32;;;;;;;23.25;5.32;;;;;;;10.84;100.00;100850.47;5243192;28;20028;-68
2023/04/11 01:51:04;;;;;;;26.65;6.32;;;;;;;10.70;100.00;100854.25;5241729;28;20417;-67
2023/04/11 01:53:36;;;;;;;21.58;5.80;;;;;;;10.70;100.00;100851.63;5244411;28;20034;-68
2023/04/11 01:56:08;;;;;;;26.48;6.57;;;;;;;10.63;100.00;100855.75;5241805;28;21258;-68
2023/04/11 01:58:40;;;;;;;23.02;6.00;;;;;;;10.64;100.00;100860.00;5230828;28;20506;-68
2023/04/11 02:01:12;;;;;;;26.60;6.80;;;;;;;10.61;100.00;100860.28;5239826;28;20482;-68
2023/04/11 02:03:43;;;;;;;23.83;6.38;;;;;;;10.63;100.00;100866.22;5242416;28;20037;-68
2023/04/11 02:06:15;;;;;;;27.17;6.32;;;;;;;10.69;100.00;100856.06;5242577;28;20046;-67
2023/04/11 02:08:47;;;;;;;26.52;6.47;;;;;;;10.69;100.00;100860.47;5241890;28;20387;-68
2023/04/11 02:11:18;;;;;;;21.35;5.60;;;;;;;10.69;100.00;100860.47;5241309;28;20087;-68
2023/04/11 02:13:50;;;;;;;24.58;6.63;;;;;;;10.68;100.00;100869.28;5241889;28;20028;-68
2023/04/11 02:16:24;;;;;;;25.23;6.18;;;;;;;10.79;100.00;100871.81;5241232;28;20028;-68
2023/04/11 02:18:56;;;;;;;26.38;7.43;;;;;;;10.70;100.00;100873.44;5248556;28;20612;-68
2023/04/11 02:21:27;;;;;;;24.42;6.32;;;;;;;10.69;100.00;100871.78;5244686;28;20081;-68
2023/04/11 02:23:58;;;;;;;23.15;6.45;;;;;;;10.69;100.00;100873.56;5247785;28;20609;-68
2023/04/11 02:26:30;;;;;;;26.75;6.80;;;;;;;10.65;100.00;100880.03;5245333;28;20049;-69
2023/04/11 02:29:01;;;;;;;23.15;5.72;;;;;;;10.64;100.00;100873.94;5248114;28;20028;-68
2023/04/11 02:31:32;;;;;;;21.58;6.07;;;;;;;10.63;100.00;100884.56;5243010;28;20036;-69
2023/04/11 02:34:03;;;;;;;22.83;6.45;;;;;;;10.62;100.00;100875.88;5244311;28;20021;-68
2023/04/11 02:36:35;;;;;;;19.60;5.50;;;;;;;10.60;100.00;100883.00;5248138;28;20025;-68
2023/04/11 02:39:07;;;;;;;25.83;7.00;;;;;;;10.61;100.00;100876.00;5244770;28;20383;-68
2023/04/11 02:41:39;;;;;;;25.58;6.00;;;;;;;10.68;100.00;100880.59;5247283;28;20036;-68
2023/04/11 02:44:11;;;;;;;25.63;6.20;;;;;;;10.73;100.00;100885.44;5245736;28;20071;-67
2023/04/11 02:46:42;;;;;;;23.20;5.47;;;;;;;10.60;100.00;100875.16;5244097;28;20120;-67
2023/04/11 02:49:13;;;;;;;21.83;5.60;;;;;;;10.73;100.00;100897.72;5245850;28;20029;-68
2023/04/11 02:51:44;;;;;;;21.65;5.55;;;;;;;10.71;100.00;100893.41;5245224;28;20025;-68
2023/04/11 02:54:16;;;;;;;19.77;5.72;;;;;;;10.73;100.00;100890.69;5245147;28;20021;-67
2023/04/11 02:56:47;;;;;;;21.25;5.65;;;;;;;10.71;100.00;100892.59;5246017;28;20212;-68
2023/04/11 02:59:18;;;;;;;20.70;4.97;;;;;;;10.68;100.00;100898.09;5245243;28;20036;-67
2023/04/11 03:01:56;;;;;;;21.05;4.85;;;;;;;10.82;100.00;100889.91;5246217;28;20161;-67
2023/04/11 03:04:27;;;;;;;21.98;5.40;;;;;;;10.59;100.00;100896.25;5238875;28;20070;-68
2023/04/11 03:06:58;;;;;;;14.52;4.38;;;;;;;10.72;100.00;100894.28;5244443;28;20124;-68
2023/04/11 03:09:30;;;;;;;20.20;5.32;;;;;;;10.66;100.00;100898.22;5244186;28;20471;-68
2023/04/11 03:12:01;;;;;;;19.55;4.45;;;;;;;10.58;100.00;100894.59;5246063;28;20489;-68
2023/04/11 03:14:32;;;;;;;14.75;4.25;;;;;;;10.58;100.00;100895.44;5246800;28;20020;-68
2023/04/11 03:17:03;;;;;;;16.25;3.72;;;;;;;10.42;100.00;100903.75;5245648;28;20056;-67
2023/04/11 03:19:35;;;;;;;16.75;4.05;;;;;;;10.43;100.00;100902.78;5246960;28;20165;-68
2023/04/11 03:22:06;;;;;;;16.23;3.38;;;;;;;10.47;100.00;100909.41;5244167;28;20044;-68
2023/04/11 03:24:40;;;;;;;15.48;3.95;;;;;;;10.35;100.00;100912.25;5245663;28;20052;-68
2023/04/11 03:27:11;;;;;;;17.23;3.78;;;;;;;10.34;100.00;100914.03;5244466;28;20039;-67
2023/04/11 03:29:43;;;;;;;15.30;4.30;;;;;;;10.39;100.00;100919.72;5243765;28;20450;-68
2023/04/11 03:32:14;;;;;;;16.45;3.30;;;;;;;10.40;100.00;100923.97;5241700;28;20027;-68
2023/04/11 03:34:45;;;;;;;14.07;3.30;;;;;;;10.45;100.00;100934.94;5242600;28;20029;-68
2023/04/11 03:37:16;;;;;;;15.52;3.50;;;;;;;10.38;100.00;100931.16;5243474;28;20036;-68
2023/04/11 03:39:48;;;;;;;14.07;3.08;;;;;;;10.29;100.00;100920.59;5245486;28;20111;-67
2023/04/11 03:42:19;;;;;;;16.33;4.30;;;;;;;10.30;100.00;100932.72;5246008;28;20686;-68
2023/04/11 03:44:51;;;;;;;14.45;3.15;;;;;;;10.32;100.00;100934.25;5242880;28;20021;-68
2023/04/11 03:47:22;;;;;;;16.27;4.05;;;;;;;10.34;100.00;100931.50;5244815;28;20024;-67
2023/04/11 03:49:53;;;;;;;13.73;3.00;;;;;;;10.36;100.00;100940.91;5244741;28;20038;-68
2023/04/11 03:52:24;;;;;;;14.48;2.90;;;;;;;10.26;100.00;100931.31;5243225;28;20061;-68
2023/04/11 03:54:56;;;;;;;15.40;3.53;;;;;;;10.20;100.00;100938.69;5245549;28;20021;-67
2023/04/11 03:57:27;;;;;;;11.85;2.90;;;;;;;10.21;100.00;100936.91;5246816;28;20411;-68
2023/04/11 03:59:59;;;;;;;17.20;3.53;;;;;;;10.23;100.00;100937.63;5241059;28;20536;-68
2023/04/11 04:02:31;;;;;;;12.60;3.17;;;;;;;10.18;100.00;100942.38;5240980;28;20574;-67
2023/04/11 04:05:02;;;;;;;15.68;3.30;;;;;;;10.20;100.00;100943.09;5246398;28;20310;-67
2023/04/11 04:07:34;;;;;;;18.48;3.38;;;;;;;10.19;100.00;100942.28;5243446;28;20025;-68
2023/04/11 04:10:05;;;;;;;17.40;3.70;;;;;;;10.24;100.00;100942.72;5241701;28;20025;-68
2023/04/11 04:12:38;;;;;;;13.85;3.80;;;;;;;10.24;100.00;100940.09;5240970;28;20095;-68
2023/04/11 04:15:10;;;;;;;21.47;4.37;;;;;;;10.19;100.00;100936.19;5241735;28;20509;-68
2023/04/11 04:17:41;;;;;;;18.20;3.75;;;;;;;10.09;100.00;100943.97;5246319;28;20199;-68
2023/04/11 04:20:12;;;;;;;11.88;3.17;;;;;;;10.09;100.00;100956.22;5245227;28;20029;-67
2023/04/11 04:22:46;;;;;;;12.20;3.20;;;;;;;10.09;100.00;100951.81;5244736;28;20037;-68
2023/04/11 04:25:18;;;;;;;18.80;4.25;;;;;;;10.15;100.00;100950.47;5246038;28;20021;-68
2023/04/11 04:27:52;;;;;;;18.30;4.38;;;;;;;10.04;100.00;100959.22;5241395;28;20470;-68
2023/04/11 04:30:27;;;;;;;12.35;3.78;;;;;;;10.03;100.00;100957.53;5242976;28;20029;-68
2023/04/11 04:32:59;;;;;;;16.55;4.97;;;;;;;9.95;100.00;100966.00;5243163;28;20112;-67
2023/04/11 04:35:30;;;;;;;15.00;4.35;;;;;;;9.94;100.00;100969.59;5245440;28;20025;-67
2023/04/11 04:38:07;;;;;;;17.80;3.83;;;;;;;10.01;100.00;100972.56;5242990;28;20613;-68
2023/04/11 04:40:40;;;;;;;17.83;4.32;;;;;;;9.95;100.00;100979.09;5241710;28;21107;-68
2023/04/11 04:43:17;;;;;;;14.30;4.63;;;;;;;10.08;100.00;100981.56;5243390;28;20364;-68
2023/04/11 04:45:49;;;;;;;17.45;4.38;;;;;;;9.81;100.00;100984.63;5241324;28;20648;-67
2023/04/11 04:48:24;;;;;;;12.93;4.35;;;;;;;9.78;100.00;100977.00;5246101;28;20025;-67
2023/04/11 04:50:55;;;;;;;15.23;4.20;;;;;;;9.70;100.00;100998.53;5240208;28;20036;-67
2023/04/11 04:53:26;;;;;;;13.98;3.75;;;;;;;9.71;100.00;101000.19;5242620;28;20033;-67
2023/04/11 04:55:57;;;;;;;16.58;3.70;;;;;;;9.68;100.00;101010.06;5244502;28;20051;-68
2023/04/11 04:58:29;;;;;;;18.45;4.65;;;;;;;9.69;100.00;100998.66;5244602;28;20029;-69
2023/04/11 05:01:01;;;;;;;16.88;4.05;;;;;;;9.79;100.00;101010.06;5236612;28;20029;-68
2023/04/11 05:03:34;;;;;;;14.43;3.33;;;;;;;9.79;100.00;101009.22;5240626;28;20033;-67
2023/04/11 05:06:05;;;;;;;15.20;4.05;;;;;;;9.76;100.00;101012.91;5243185;28;20041;-68
2023/04/11 05:08:36;;;;;;;15.23;3.83;;;;;;;9.71;100.00;101015.06;5241679;28;20143;-67
2023/04/11 05:11:08;;;;;;;13.95;4.53;;;;;;;9.66;100.00;101014.56;5240552;28;20041;-68
2023/04/11 05:13:39;;;;;;;16.30;3.28;;;;;;;9.67;100.00;101026.72;5244582;28;20032;-68
2023/04/11 05:16:10;;;;;;;14.05;3.60;;;;;;;9.61;100.00;101011.50;5242362;28;20076;-68
2023/04/11 05:18:42;;;;;;;11.13;2.78;;;;;;;9.65;100.00;101034.66;5242763;28;20436;-68
2023/04/11 05:21:14;;;;;;;15.05;3.50;;;;;;;9.66;100.00;101031.13;5241927;28;20021;-68
2023/04/11 05:23:45;;;;;;;14.73;3.72;;;;;;;9.63;100.00;101030.53;5243000;28;20040;-68
2023/04/11 05:26:16;;;;;;;17.20;3.17;;;;;;;9.63;100.00;101030.53;5241669;28;20032;-68
2023/04/11 05:28:48;;;;;;;18.73;4.00;;;;;;;9.54;100.00;101037.28;5244914;28;20464;-68
2023/04/11 05:31:19;;;;;;;15.27;3.22;;;;;;;9.58;100.00;101037.88;5238603;28;20037;-68
2023/04/11 05:33:51;;;;;;;14.02;3.17;;;;;;;9.56;100.00;101043.25;5237632;28;20106;-68
2023/04/11 05:36:23;;;;;;;12.98;2.95;;;;;;;9.54;100.00;101046.94;5240284;28;20033;-68
2023/04/11 05:38:54;;;;;;;18.48;4.03;;;;;;;9.59;100.00;101047.41;5236794;28;20024;-68
2023/04/11 05:41:25;;;;;;;14.50;3.35;;;;;;;9.62;100.00;101048.00;5239706;28;20032;-67
2023/04/11 05:43:57;;;;;;;14.77;3.38;;;;;;;9.65;100.00;101054.78;5243918;28;20410;-67
2023/04/11 05:46:28;;;;;;;11.68;3.22;;;;;;;9.71;100.00;101062.16;5236647;28;20029;-68
2023/04/11 05:49:00;;;;;;;13.18;3.10;;;;;;;9.66;100.00;101066.91;5237623;28;20029;-68
2023/04/11 05:51:31;;;;;;;19.00;3.58;;;;;;;9.69;100.00;101071.91;5230849;28;20115;-68
2023/04/11 05:54:02;;;;;;;8.52;2.33;;;;;;;9.69;100.00;101064.88;5239015;28;20123;-67
2023/04/11 05:56:34;;;;;;;17.52;3.30;;;;;;;9.64;100.00;101072.25;5242306;28;20052;-68
2023/04/11 05:59:05;;;;;;;11.88;2.92;;;;;;;9.74;100.00;101078.44;5237676;28;20303;-68
2023/04/11 06:01:38;;;;;;;15.48;3.10;;;;;;;9.76;100.00;101078.31;5236144;28;20036;-68
2023/04/11 06:04:09;;;;;;;17.15;3.72;;;;;;;9.69;100.00;101082.34;5241325;28;20506;-68
2023/04/11 06:06:42;;;;;;;15.50;3.17;;;;;;;9.78;100.00;101088.69;5243885;28;20036;-68
2023/04/11 06:09:13;;;;;;;12.88;3.03;;;;;;;9.74;100.00;101083.69;5244055;28;20736;-68
2023/04/11 06:11:45;;;;;;;13.30;3.42;;;;;;;9.74;100.00;101088.09;5247630;28;20025;-68
2023/04/11 06:14:16;;;;;;;12.88;3.15;;;;;;;9.73;100.00;101092.47;5242895;28;20024;-68
2023/04/11 06:16:47;;;;;;;9.85;2.58;;;;;;;9.78;100.00;101097.38;5247796;28;20478;-68
2023/04/11 06:19:19;;;;;;;16.35;2.95;;;;;;;9.81;100.00;101093.66;5246351;28;20060;-68
2023/04/11 06:21:51;;;;;;;14.80;3.28;;;;;;;9.90;100.00;101099.03;5241901;28;20844;-68
2023/04/11 06:24:36;;;;;;;16.25;3.30;;;;;;;10.15;100.00;101102.31;5247686;28;20055;-68
2023/04/11 06:27:10;;;;;;;16.55;3.25;;;;;;;10.02;100.00;101097.22;5245856;28;20041;-68
2023/04/11 06:29:42;;;;;;;13.43;3.80;;;;;;;10.01;100.00;101099.97;5241810;28;20474;-68
2023/04/11 06:32:13;;;;;;;12.15;2.90;;;;;;;10.07;100.00;101108.16;5241296;28;20033;-68
2023/04/11 06:34:45;;;;;;;17.73;3.15;;;;;;;10.07;100.00;101099.47;5242013;28;20025;-68
2023/04/11 06:37:16;;;;;;;14.80;3.70;;;;;;;10.17;100.00;101106.50;5245066;28;20597;-68
2023/04/11 06:39:47;;;;;;;12.65;3.70;;;;;;;10.23;100.00;101110.44;5242371;28;20509;-68
2023/04/11 06:42:19;;;;;;;12.68;3.72;;;;;;;10.24;100.00;101106.84;5243645;28;20033;-68
2023/04/11 06:44:50;;;;;;;12.43;3.15;;;;;;;10.42;100.00;101113.28;5244180;28;20509;-69
2023/04/11 06:47:22;;;;;;;12.63;3.05;;;;;;;10.52;100.00;101115.97;5243778;28;20501;-68
2023/04/11 06:49:54;;;;;;;18.30;3.95;;;;;;;10.54;100.00;101118.50;5241938;28;20424;-68
2023/04/11 06:52:25;;;;;;;13.77;3.78;;;;;;;10.70;100.00;101124.16;5238481;28;20151;-69
2023/04/11 06:54:56;;;;;;;13.45;3.40;;;;;;;10.74;100.00;101125.56;5240798;28;20013;-69
2023/04/11 06:57:28;;;;;;;13.35;3.88;;;;;;;10.81;100.00;101129.34;5243866;28;20031;-68
2023/04/11 06:59:59;;;;;;;16.30;4.22;;;;;;;10.78;100.00;101121.75;5242439;28;20212;-68
2023/04/11 07:02:34;;;;;;;16.40;4.65;;;;;;;10.84;100.00;101123.03;5241634;28;20033;-69
2023/04/11 07:05:09;;;;;;;15.75;4.75;;;;;;;11.04;100.00;101137.97;5242615;28;20049;-69
2023/04/11 07:07:40;;;;;;;14.60;4.18;;;;;;;10.95;100.00;101136.09;5243948;28;20537;-69
2023/04/11 07:10:11;;;;;;;14.82;4.03;;;;;;;10.93;100.00;101140.63;5244186;28;20041;-67
2023/04/11 07:12:42;;;;;;;15.68;4.55;;;;;;;10.93;100.00;101141.47;5241581;28;20040;-68
2023/04/11 07:15:14;;;;;;;16.75;5.25;;;;;;;11.00;100.00;101147.03;5240224;28;20482;-68
2023/04/11 07:17:49;;;;;;;15.52;4.18;;;;;;;11.13;100.00;101147.69;5245498;28;20394;-68
2023/04/11 07:20:21;;;;;;;13.07;4.55;;;;;;;11.27;100.00;101143.94;5248393;28;20741;-69
2023/04/11 07:22:52;;;;;;;18.38;4.82;;;;;;;11.34;100.00;101145.09;5242538;28;20033;-68
2023/04/11 07:25:29;;;;;;;15.05;5.20;;;;;;;11.61;98.56;101152.44;5243616;28;20025;-69
2023/04/11 07:28:01;;;;;;;16.80;4.50;;;;;;;11.79;98.90;101155.31;5244932;28;20060;-69
2023/04/11 07:30:33;;;;;;;13.95;4.10;;;;;;;11.76;96.30;101165.22;5239311;28;20112;-68
2023/04/11 07:33:04;;;;;;;15.65;3.85;;;;;;;11.86;95.11;101167.00;5241699;28;20045;-68
2023/04/11 07:35:35;;;;;;;12.02;3.28;;;;;;;11.79;90.44;101176.31;5241267;28;20028;-69
2023/04/11 07:38:08;;;;;;;14.55;3.78;;;;;;;11.78;91.37;101171.16;5240427;28;20028;-68
2023/04/11 07:40:39;;;;;;;9.95;3.00;;;;;;;11.74;89.92;101180.25;5244358;28;20064;-69
2023/04/11 07:43:10;;;;;;;15.82;3.00;;;;;;;11.86;87.78;101167.00;5246436;28;20781;-68
2023/04/11 07:45:42;;;;;;;9.15;2.58;;;;;;;12.11;86.69;101185.88;5238270;28;20032;-68
2023/04/11 07:48:13;;;;;;;15.50;3.72;;;;;;;12.07;87.69;101173.97;5240977;28;20111;-69
2023/04/11 07:50:44;;;;;;;11.40;2.70;;;;;;;12.05;86.45;101182.00;5242258;28;20028;-69
2023/04/11 07:53:16;;;;;;;14.57;3.65;;;;;;;12.09;85.82;101177.31;5238963;28;20026;-69
2023/04/11 07:55:47;;;;;;;12.15;2.90;;;;;;;12.15;83.12;101166.25;5238633;28;20568;-69
2023/04/11 07:58:18;;;;;;;13.07;2.92;;;;;;;12.23;81.32;101176.94;5240897;28;20371;-69
2023/04/11 08:00:51;;;;;;;14.07;2.47;;;;;;;12.31;82.91;101174.50;5238246;28;20144;-69
2023/04/11 08:03:23;;;;;;;11.68;3.17;;;;;;;12.43;81.95;101184.91;5242811;28;20040;-69
2023/04/11 08:05:54;;;;;;;9.45;2.83;;;;;;;12.60;79.02;101184.25;5243973;28;20045;-69
2023/04/11 08:08:26;;;;;;;13.98;3.38;;;;;;;12.67;76.76;101188.00;5237505;28;20053;-69
2023/04/11 08:10:57;;;;;;;10.10;3.20;;;;;;;12.72;77.22;101190.22;5241125;28;20028;-70
2023/04/11 08:13:28;;;;;;;10.05;3.25;;;;;;;12.79;76.93;101192.16;5241694;28;20016;-69
2023/04/11 08:16:00;;;;;;;9.00;2.65;;;;;;;12.64;75.54;101191.72;5241671;28;20049;-69
2023/04/11 08:18:31;;;;;;;11.50;2.80;;;;;;;12.85;76.82;101194.28;5239221;28;20025;-69
2023/04/11 08:21:03;;;;;;;8.05;2.45;;;;;;;12.73;72.23;101219.03;5241803;28;20451;-69
2023/04/11 08:23:36;;;;;;;10.98;3.30;;;;;;;12.67;73.13;101214.28;5245343;28;20029;-70
2023/04/11 08:26:08;;;;;;;9.45;2.30;;;;;;;12.81;74.37;101203.41;5244437;28;20557;-69
2023/04/11 08:28:40;;;;;;;11.75;2.72;;;;;;;12.94;73.27;101220.72;5242530;28;20111;-69
2023/04/11 08:31:11;;;;;;;10.25;2.78;;;;;;;13.05;71.33;101217.97;5244453;28;20037;-70
2023/04/11 08:33:42;;;;;;;9.02;2.63;;;;;;;13.11;68.25;101218.25;5244785;28;20502;-70
2023/04/11 08:36:14;;;;;;;10.15;2.40;;;;;;;13.17;65.79;101223.91;5243515;28;20090;-70
2023/04/11 08:38:45;;;;;;;10.30;1.98;;;;;;;13.20;65.65;101221.84;5242510;28;20043;-69
2023/04/11 08:41:16;;;;;;;11.75;2.63;;;;;;;13.15;65.83;101230.16;5243958;28;20024;-70
2023/04/11 08:43:48;;;;;;;9.25;2.45;;;;;;;13.17;69.09;101234.44;5244229;28;20028;-69
2023/04/11 08:46:19;;;;;;;11.48;2.53;;;;;;;13.28;68.57;101232.53;5245036;28;20029;-70
2023/04/11 08:48:50;;;;;;;10.98;2.55;;;;;;;13.22;64.89;101235.72;5244686;28;20458;-69
2023/04/11 08:51:25;;;;;;;8.00;2.88;;;;;;;13.13;65.69;101236.50;5244011;28;20068;-70
2023/04/11 08:54:00;;;;;;;11.27;2.80;;;;;;;13.06;67.44;101241.47;5243402;28;20033;-70
2023/04/11 08:56:33;;;;;;;9.93;2.75;;;;;;;13.16;64.22;101228.34;5238888;28;20087;-70
2023/04/11 08:59:04;;;;;;;10.68;2.03;;;;;;;13.05;64.61;101226.69;5239459;28;20542;-69
2023/04/11 09:01:36;;;;;;;9.88;2.25;;;;;;;13.05;65.90;101229.31;5237483;28;20071;-70
2023/04/11 09:04:08;;;;;;;9.48;2.17;;;;;;;13.08;65.69;101226.41;5235534;28;20040;-70
2023/04/11 09:06:55;;;;;;;9.07;2.00;;;;;;;13.29;66.38;101236.00;5242362;28;20305;-69
2023/04/11 09:09:30;;;;;;;11.57;2.10;;;;;;;13.18;67.46;101233.47;5235650;28;20487;-70
2023/04/11 09:12:02;;;;;;;8.65;2.47;;;;;;;13.41;69.32;101226.16;5239550;28;20036;-69
2023/04/11 09:14:33;;;;;;;8.90;2.20;;;;;;;13.42;65.22;101226.03;5237565;28;20025;-70
2023/04/11 09:17:12;;;;;;;8.63;2.72;;;;;;;13.66;66.77;101244.03;5239586;28;20033;-70
2023/04/11 09:19:43;;;;;;;8.60;2.40;;;;;;;13.75;62.75;101239.69;5239001;28;20029;-70
2023/04/11 09:22:14;;;;;;;9.82;2.28;;;;;;;13.90;63.67;101237.47;5242667;28;20541;-70
2023/04/11 09:25:00;;;;;;;9.38;2.13;;;;;;;14.32;62.46;101240.56;5241346;28;20025;-70
2023/04/11 09:27:32;;;;;;;6.70;1.80;;;;;;;14.31;59.54;101239.69;5238633;28;20037;-70
2023/04/11 09:30:04;;;;;;;9.23;1.92;;;;;;;14.64;59.48;101245.41;5238252;28;20032;-70
2023/04/11 09:32:36;;;;;;;8.90;2.60;;;;;;;14.47;57.77;101239.09;5239522;28;20075;-69
2023/04/11 09:35:22;;;;;;;8.40;1.88;;;;;;;14.56;57.41;101243.50;5238569;28;20239;-70
2023/04/11 09:37:56;;;;;;;5.88;1.83;;;;;;;14.23;55.68;101249.31;5236958;28;20037;-70
2023/04/11 09:40:32;;;;;;;10.73;2.05;;;;;;;14.14;56.22;101242.28;5239943;28;20067;-70
2023/04/11 09:43:03;;;;;;;6.43;1.80;;;;;;;14.56;57.26;101248.78;5241348;28;20032;-70
2023/04/11 09:45:35;;;;;;;10.50;2.40;;;;;;;14.75;54.47;101241.75;5242429;28;20029;-70
2023/04/11 09:48:07;;;;;;;6.80;1.70;;;;;;;14.89;50.08;101237.78;5244438;28;20033;-70
2023/04/11 09:50:38;;;;;;;9.38;1.75;;;;;;;15.13;53.11;101239.84;5241266;28;20441;-70
2023/04/11 09:53:10;;;;;;;8.25;1.90;;;;;;;15.14;52.60;101247.59;5241216;28;20075;-70
2023/04/11 09:55:41;;;;;;;8.27;1.90;;;;;;;14.89;50.57;101248.31;5244380;28;20409;-70
2023/04/11 09:58:13;;;;;;;6.40;1.63;;;;;;;14.76;49.87;101246.03;5238270;28;20022;-70
2023/04/11 10:00:46;;;;;;;6.68;1.80;;;;;;;14.69;47.95;101245.78;5239408;28;20029;-70
2023/04/11 10:03:19;;;;;;;7.60;1.88;;;;;;;14.99;50.67;101249.94;5239923;28;20025;-69
2023/04/11 10:05:52;;;;;;;5.57;1.73;;;;;;;15.16;47.99;101252.75;5239418;28;20063;-70
2023/04/11 10:08:31;;;;;;;6.78;1.83;;;;;;;14.97;48.95;101261.63;5239233;28;20029;-70
2023/04/11 10:11:06;;;;;;;4.97;1.45;;;;;;;15.26;47.97;101249.03;5238603;28;20115;-69
2023/04/11 10:13:37;;;;;;;6.90;2.05;;;;;;;15.17;46.22;101244.66;5238921;28;20017;-70
2023/04/11 10:16:17;;;;;;;5.88;1.77;;;;;;;15.60;46.16;101232.50;5240637;28;20508;-70
2023/04/11 10:18:51;;;;;;;8.68;1.70;;;;;;;15.44;44.82;101237.66;5236204;28;20083;-69
2023/04/11 10:21:31;;;;;;;6.03;1.60;;;;;;;15.67;44.47;101243.31;5235144;28;20048;-70
2023/04/11 10:24:20;;;;;;;7.95;1.52;;;;;;;15.75;43.49;101240.72;5234646;28;20035;-69
2023/04/11 10:27:02;;;;;;;6.25;1.60;;;;;;;15.68;45.39;101235.25;5236847;28;20029;-70
2023/04/11 10:29:47;;;;;;;8.00;1.93;;;;;;;15.63;42.65;101241.94;5236400;28;20793;-70
2023/04/11 10:32:20;;;;;;;7.32;1.80;;;;;;;15.21;42.30;101237.28;5239555;28;20013;-70
2023/04/11 10:34:52;;;;;;;5.95;1.23;;;;;;;15.42;43.93;101242.25;5236759;28;20028;-70
2023/04/11 10:37:29;;;;;;;6.20;1.25;;;;;;;15.62;43.71;101240.28;5234207;28;20029;-70
2023/04/11 10:40:08;;;;;;;9.82;2.05;;;;;;;15.63;43.24;101237.47;5241823;28;20032;-70
2023/04/11 10:42:41;;;;;;;6.47;1.40;;;;;;;15.65;42.16;101246.13;5240771;28;20033;-70
2023/04/11 10:45:22;;;;;;;;;;;;;;;16.52;41.88;101239.84;5240355;28;20086;-70
2023/04/11 10:48:06;;;;;;;5.22;1.52;;;;;;;15.93;39.97;101240.69;5242922;28;19924;-70
2023/04/11 10:50:43;;;;;;;6.40;1.67;;;;;;;15.86;39.66;101240.47;5241777;28;20029;-70
2023/04/11 10:53:35;;;;;;;4.78;1.10;;;;;;;16.18;39.66;101247.78;5242784;28;20542;-70
2023/04/11 10:56:07;;;;;;;7.00;1.65;;;;;;;16.06;41.00;101259.59;5241960;28;20342;-70
2023/04/11 10:58:38;;;;;;;6.90;2.15;;;;;;;15.73;41.42;101246.19;5240613;28;20037;-70
2023/04/11 11:01:17;;;;;;;6.15;1.63;;;;;;;15.96;41.03;101238.56;5235630;28;20501;-70
2023/04/11 11:03:53;;;;;;;6.47;1.80;;;;;;;16.13;42.72;101241.31;5245227;28;20025;-70
2023/04/11 11:06:25;;;;;;;7.65;1.95;;;;;;;16.04;40.14;101248.38;5241714;28;20049;-70
2023/04/11 11:08:58;;;;;;;6.72;1.70;;;;;;;15.90;39.26;101243.63;5239809;28;20092;-70
2023/04/11 11:11:29;;;;;;;;;;;;;;;16.49;39.00;101256.03;5239383;28;20052;-70
2023/04/11 11:14:00;;;;;;;5.30;1.23;;;;;;;16.02;41.62;101253.81;5240072;28;19917;-70
2023/04/11 11:16:32;;;;;;;5.10;1.40;;;;;;;16.05;40.02;101252.66;5238829;28;20029;-70
2023/04/11 11:19:05;;;;;;;4.25;1.52;;;;;;;16.27;40.62;101259.22;5240048;28;20029;-70
2023/04/11 11:21:36;;;;;;;9.48;2.00;;;;;;;16.24;39.32;101241.84;5231841;28;20033;-71
2023/04/11 11:24:07;;;;;;;7.75;1.73;;;;;;;16.22;39.14;101259.72;5241720;28;20025;-70
2023/04/11 11:26:38;;;;;;;4.95;1.05;;;;;;;16.23;36.09;101258.72;5241724;28;20595;-70
2023/04/11 11:29:10;;;;;;;5.15;1.40;;;;;;;16.27;35.85;101256.59;5242483;28;20028;-70
2023/04/11 11:31:44;;;;;;;5.30;1.30;;;;;;;16.30;37.86;101254.47;5234580;28;20025;-70
2023/04/11 11:34:26;;;;;;;3.78;1.33;;;;;;;16.37;37.31;101265.25;5243246;28;20022;-70
2023/04/11 11:37:05;;;;;;;6.53;1.67;;;;;;;16.42;37.68;101264.75;5241597;28;20064;-70
2023/04/11 11:39:37;;;;;;;6.65;1.60;;;;;;;16.59;37.87;101261.19;5242810;28;20394;-70
2023/04/11 11:42:09;;;;;;;4.20;1.20;;;;;;;16.54;36.90;101258.19;5241545;28;20365;-70